Mazonia, IL

5:47 PM CST on December 03, 2016 (GMT -0600)
MesoWest | | Change Station
Active Advisory: Winter Weather Advisory

Elev 577 ft 41.21 °N, 88.28 °W | Updated 465 days ago

Clear
Clear
59.0 °F
Feels Like 59.0 °F
N
0.0
Wind Variable Wind from North
Gusts 0.0 mph

Today
High -- | Low -- °F
--% Chance of Precip.
Yesterday
High -- | Low -- °F
Precip. -- in
Pressure 30.31 in
Visibility 10.0 miles
Clouds Clear
Dew Point Not available.
Humidity Not available.
Rainfall in
Snow Depth Not available.
7:01 AM 4:24 PM
Waxing Crescent, 18% visible
METAR KC09 032335Z AUTO 00000KT 10SM CLR 00/M03 A3031 RMK AO2 T10051034
Pressure 30.31 in
Visibility 10.0 miles
Clouds Clear
Dew Point Not available.
Humidity Not available.
Rainfall in
Snow Depth Not available.
7:01 AM 4:24 PM
Waxing Crescent, 18% visible
METAR KC09 032335Z AUTO 00000KT 10SM CLR 00/M03 A3031 RMK AO2 T10051034

10-Day Weather Forecast

Almanac

Astronomy

Dec. 03, 2016 Rise Set
Actual Time
Civil Twilight
Nautical Twilight
Astronomical Twilight
Moon
Length of Visible Light
Length of Day
Tomorrow will be .
, % of the Moon is Illuminated

Today's Extremes

State Highs State Lows

Community

WunderPhotos

Upload Photos

1,955,536 photos uploaded!

WunderBlog® & News

Nearby

Air Quality

  Air Quality AQ Index Pollutant
Not available.

Snow Depth

Station Depth Elevation

Earthquake Activity

City Distance Mag. Time & Date
Minimum magnitude displayed is 2.5.

Coastal Water Temperatures

Place Temperature

Stations

Nearby Weather Stations

Station Location Temp. Windchill Dew Point Humidity Wind Precip. Elev Updated Type
                   

Watches & Warnings

Winter Weather Advisory
Issued: 3:07 PM CST Dec. 3, 2016 – National Weather Service

... Winter Weather Advisory in effect from 7 am to 6 PM CST
Sunday...

The National Weather Service in Chicago has issued a Winter
Weather Advisory for snow which is in effect from 7 am to 6 PM
CST Sunday.

* Timing... light to moderate snow will begin Sunday morning and
continue through Sunday afternoon.

* Snow accumulations... 2 to 4 inches with the heaviest amounts
generally northwest of a Chicago to Peru line.

* Main impact... slippery conditions are expected on untreated
surfaces... creating hazardous travel.

* Other impacts... visibility may fall to around one half mile at
times... causing an additional travel hazard.

* Note... impacts may be mitigated by mild Road temperatures on
heavily traveled roads... such as in the city of Chicago and
immediate suburbs.

Precautionary/preparedness actions...

A Winter Weather Advisory for snow means that periods of snow
will cause primarily travel difficulties. Be prepared for snow
covered roads and limited visibilities... and use caution while
driving.



Cms/Castro